Time;durP1;ratioP1;P1;durP2;ratioP2;P2;SDS_P1;SDS_P2;PMS_P1;PMS_P2;Temp;Humidity;BMP_temperature;BMP_pressure;BME280_temperature;BME280_humidity;BME280_pressure;Samples;Min_cycle;Max_cycle;Signal;HPM_P1;HPM_P2
2022/03/18 00:00:46;;;;;;;10.80;3.47;;;;;;;;;;4999309;28;20438;-88
2022/03/18 00:03:11;;;;;;;11.82;3.38;;;;;;;;;;5015381;28;20052;-87
2022/03/18 00:05:37;;;;;;;11.35;3.88;;;;;;;;;;5015420;28;20452;-88
2022/03/18 00:08:05;;;;;;;13.25;3.88;;;;;;;;;;5015563;28;20164;-87
2022/03/18 00:10:31;;;;;;;10.50;3.17;;;;;;;;;;5015579;28;20121;-87
2022/03/18 00:12:58;;;;;;;13.00;4.07;;;;;;;;;;5015229;28;20037;-87
2022/03/18 00:15:24;;;;;;;13.05;4.05;;;;;;;;;;5015348;28;20037;-87
2022/03/18 00:17:54;;;;;;;13.13;3.85;;;;;;;;;;5015104;28;20064;-88
2022/03/18 00:20:20;;;;;;;10.95;4.00;;;;;;;;;;4998164;28;20099;-87
2022/03/18 00:22:47;;;;;;;10.57;3.90;;;;;;;;;;5015131;28;20495;-87
2022/03/18 00:25:13;;;;;;;11.60;4.00;;;;;;;;;;4999131;28;20041;-88
2022/03/18 00:27:40;;;;;;;10.82;4.13;;;;;;;;;;5015343;28;20514;-87
2022/03/18 00:30:07;;;;;;;14.65;4.05;;;;;;;;;;5015409;28;20124;-87
2022/03/18 00:32:33;;;;;;;12.93;3.95;;;;;;;;;;5015015;28;20450;-87
2022/03/18 00:34:59;;;;;;;17.92;4.80;;;;;;;;;;5015055;28;20217;-87
2022/03/18 00:37:25;;;;;;;10.73;4.38;;;;;;;;;;4998396;28;20042;-87
2022/03/18 00:39:51;;;;;;;14.43;4.72;;;;;;;;;;4998733;28;20148;-88
2022/03/18 00:42:17;;;;;;;15.20;4.70;;;;;;;;;;4998722;28;20135;-88
2022/03/18 00:44:43;;;;;;;11.98;4.55;;;;;;;;;;5014984;28;20491;-88
2022/03/18 00:52:39;;;;;;;18.65;6.47;;;;;;;;;;5014844;28;20045;-87
2022/03/18 00:55:05;;;;;;;12.52;5.07;;;;;;;;;;4998436;28;20041;-87
2022/03/18 00:57:31;;;;;;;17.02;5.40;;;;;;;;;;5014580;28;20037;-88
2022/03/18 00:59:57;;;;;;;15.20;5.35;;;;;;;;;;5014778;28;20042;-87
2022/03/18 01:02:23;;;;;;;17.83;6.43;;;;;;;;;;5014638;28;20384;-88
2022/03/18 01:04:50;;;;;;;17.67;5.38;;;;;;;;;;5014395;28;20037;-87
2022/03/18 01:07:16;;;;;;;14.35;5.45;;;;;;;;;;4998484;28;20128;-87
2022/03/18 01:09:42;;;;;;;17.95;6.47;;;;;;;;;;5014460;28;20080;-87
2022/03/18 01:12:08;;;;;;;20.27;6.00;;;;;;;;;;5014970;28;20073;-87
2022/03/18 01:14:34;;;;;;;18.02;6.32;;;;;;;;;;5014330;28;20072;-87
2022/03/18 01:17:00;;;;;;;13.90;6.03;;;;;;;;;;5014818;28;20076;-87
2022/03/18 01:19:26;;;;;;;15.13;6.03;;;;;;;;;;4998099;28;20396;-87
2022/03/18 01:21:52;;;;;;;14.95;6.47;;;;;;;;;;4998319;28;20065;-87
2022/03/18 01:24:19;;;;;;;15.32;6.00;;;;;;;;;;5014176;28;20041;-87
2022/03/18 01:26:45;;;;;;;14.70;6.88;;;;;;;;;;5014678;28;20484;-87
2022/03/18 01:29:12;;;;;;;18.60;6.60;;;;;;;;;;5014287;28;20041;-87
2022/03/18 01:31:38;;;;;;;17.88;7.07;;;;;;;;;;5016695;28;20091;-87
2022/03/18 01:34:04;;;;;;;14.93;6.43;;;;;;;;;;5002141;28;20233;-87
2022/03/18 01:36:30;;;;;;;11.93;5.97;;;;;;;;;;5018400;28;20491;-87
2022/03/18 01:38:56;;;;;;;17.17;6.55;;;;;;;;;;5001642;28;20037;-87
2022/03/18 01:41:22;;;;;;;16.00;6.32;;;;;;;;;;5001797;28;20037;-87
2022/03/18 01:43:48;;;;;;;12.48;6.25;;;;;;;;;;5018273;28;20049;-87
2022/03/18 01:46:15;;;;;;;15.10;6.47;;;;;;;;;;5001731;28;20041;-88
2022/03/18 01:48:41;;;;;;;15.00;6.00;;;;;;;;;;5017924;28;20503;-87
2022/03/18 01:51:08;;;;;;;13.23;6.38;;;;;;;;;;5018004;28;20041;-88
2022/03/18 01:53:38;;;;;;;16.45;6.65;;;;;;;;;;5001778;28;20152;-88
2022/03/18 01:56:05;;;;;;;17.67;6.65;;;;;;;;;;5018007;28;20033;-88
2022/03/18 01:58:31;;;;;;;14.75;5.00;;;;;;;;;;5017795;28;20164;-88
2022/03/18 02:00:57;;;;;;;15.40;5.78;;;;;;;;;;5017826;28;20060;-88
2022/03/18 02:03:23;;;;;;;15.43;5.90;;;;;;;;;;5017524;28;20057;-88
2022/03/18 02:05:49;;;;;;;14.90;6.10;;;;;;;;;;5017684;28;20052;-88
2022/03/18 02:08:17;;;;;;;15.35;6.45;;;;;;;;;;5017433;28;20041;-87
2022/03/18 02:10:43;;;;;;;13.15;6.65;;;;;;;;;;5001326;28;20156;-87
2022/03/18 02:13:09;;;;;;;16.98;7.10;;;;;;;;;;5017507;28;20038;-87
2022/03/18 02:15:35;;;;;;;15.05;6.32;;;;;;;;;;5000982;28;20084;-88
2022/03/18 02:18:01;;;;;;;17.67;7.13;;;;;;;;;;5001292;28;20125;-87
2022/03/18 02:20:27;;;;;;;19.00;7.43;;;;;;;;;;5017309;28;20055;-87
2022/03/18 02:22:53;;;;;;;20.02;6.95;;;;;;;;;;5017361;28;20041;-88
2022/03/18 02:25:19;;;;;;;12.93;5.70;;;;;;;;;;5017442;28;20051;-87
2022/03/18 02:28:02;;;;;;;16.55;6.53;;;;;;;;;;5017563;28;20510;-88
2022/03/18 02:30:30;;;;;;;15.73;6.50;;;;;;;;;;5000874;28;20079;-87
2022/03/18 02:32:56;;;;;;;14.90;6.50;;;;;;;;;;5017265;28;20099;-88
2022/03/18 02:35:22;;;;;;;14.95;6.65;;;;;;;;;;5016801;28;20122;-87
2022/03/18 02:37:49;;;;;;;14.88;6.70;;;;;;;;;;5017097;28;20479;-88
2022/03/18 02:40:15;;;;;;;18.27;7.00;;;;;;;;;;5016920;28;20056;-86
2022/03/18 02:42:44;;;;;;;14.07;6.20;;;;;;;;;;5015930;28;20506;-89
2022/03/18 02:45:10;;;;;;;12.63;6.28;;;;;;;;;;5000584;28;20045;-87
2022/03/18 02:47:37;;;;;;;16.58;7.00;;;;;;;;;;5016854;28;20513;-87
2022/03/18 02:50:03;;;;;;;13.57;6.65;;;;;;;;;;5016499;28;20045;-87
2022/03/18 02:52:29;;;;;;;15.98;7.38;;;;;;;;;;5016773;28;20103;-88
2022/03/18 02:54:55;;;;;;;14.45;6.43;;;;;;;;;;5016432;28;20041;-88
2022/03/18 02:57:21;;;;;;;14.13;6.28;;;;;;;;;;5016694;28;20037;-87
2022/03/18 02:59:47;;;;;;;16.88;6.97;;;;;;;;;;5016527;28;20037;-88
2022/03/18 03:02:14;;;;;;;11.95;6.70;;;;;;;;;;5016597;28;20475;-87
2022/03/18 03:07:59;;;;;;;15.25;6.05;;;;;;;;;;5000082;28;20045;-88
2022/03/18 03:10:11;;;;;;;14.15;6.85;;;;;;;;;;5016252;28;20046;-87
2022/03/18 03:12:38;;;;;;;16.27;7.38;;;;;;;;;;5016418;28;20041;-87
2022/03/18 03:15:04;;;;;;;11.32;6.13;;;;;;;;;;5016100;28;20041;-87
2022/03/18 03:17:30;;;;;;;15.23;6.80;;;;;;;;;;5016552;28;20040;-87
2022/03/18 03:19:56;;;;;;;13.73;6.53;;;;;;;;;;5016065;28;20349;-87
2022/03/18 03:22:22;;;;;;;19.35;7.18;;;;;;;;;;5016269;28;20128;-87
2022/03/18 03:24:48;;;;;;;15.45;7.03;;;;;;;;;;5015918;28;20072;-87
2022/03/18 03:27:14;;;;;;;17.10;7.18;;;;;;;;;;5016088;28;20116;-87
2022/03/18 03:29:40;;;;;;;13.85;7.05;;;;;;;;;;5015878;28;20439;-87
2022/03/18 03:32:06;;;;;;;20.63;7.03;;;;;;;;;;5016116;28;20111;-88
2022/03/18 03:34:32;;;;;;;13.98;7.15;;;;;;;;;;4999147;28;20074;-87
2022/03/18 03:36:58;;;;;;;21.48;6.95;;;;;;;;;;4999848;28;20518;-87
2022/03/18 03:39:24;;;;;;;17.05;7.03;;;;;;;;;;4999751;28;20042;-87
2022/03/18 03:41:50;;;;;;;16.05;7.18;;;;;;;;;;5015905;28;20052;-88
2022/03/18 03:44:16;;;;;;;17.02;7.13;;;;;;;;;;5015871;28;20037;-87
2022/03/18 03:46:43;;;;;;;16.45;7.18;;;;;;;;;;5015770;28;20096;-87
2022/03/18 03:49:09;;;;;;;15.55;7.13;;;;;;;;;;5015599;28;20033;-87
2022/03/18 03:51:35;;;;;;;12.93;6.30;;;;;;;;;;5015720;28;20046;-87
2022/03/18 03:54:01;;;;;;;18.27;7.22;;;;;;;;;;5015419;28;20037;-87
2022/03/18 03:56:27;;;;;;;19.67;7.35;;;;;;;;;;5015590;28;20391;-87
2022/03/18 03:58:53;;;;;;;15.10;6.30;;;;;;;;;;4999390;28;20087;-87
2022/03/18 04:01:19;;;;;;;16.58;7.32;;;;;;;;;;5015741;28;20053;-87
2022/03/18 04:03:47;;;;;;;16.85;6.13;;;;;;;;;;5015553;28;20045;-88
2022/03/18 04:06:13;;;;;;;14.13;6.75;;;;;;;;;;4998999;28;20052;-87
2022/03/18 04:08:39;;;;;;;15.65;6.22;;;;;;;;;;4999139;28;20488;-88
2022/03/18 04:11:05;;;;;;;10.82;5.68;;;;;;;;;;5015232;28;20124;-87
2022/03/18 04:13:31;;;;;;;14.52;6.65;;;;;;;;;;4999476;28;20049;-87
2022/03/18 04:15:57;;;;;;;16.23;6.90;;;;;;;;;;4998779;28;20041;-88
2022/03/18 04:18:23;;;;;;;14.95;6.05;;;;;;;;;;5015492;28;20037;-87
2022/03/18 04:20:49;;;;;;;18.98;6.85;;;;;;;;;;5015210;28;20484;-87
2022/03/18 04:23:15;;;;;;;14.80;6.57;;;;;;;;;;4999314;28;20155;-88
2022/03/18 04:25:41;;;;;;;15.63;6.22;;;;;;;;;;4998886;28;20047;-88
2022/03/18 04:28:07;;;;;;;17.55;6.65;;;;;;;;;;5015172;28;20402;-87
2022/03/18 04:30:33;;;;;;;14.68;6.93;;;;;;;;;;5015116;28;20053;-87
2022/03/18 04:32:59;;;;;;;16.25;7.57;;;;;;;;;;5015195;28;20120;-87
2022/03/18 04:35:26;;;;;;;12.70;6.35;;;;;;;;;;5014714;28;20106;-87
2022/03/18 04:37:52;;;;;;;13.68;6.38;;;;;;;;;;5015205;28;20068;-87
2022/03/18 04:40:18;;;;;;;17.13;7.03;;;;;;;;;;5014737;28;20048;-88
2022/03/18 04:42:45;;;;;;;14.35;6.70;;;;;;;;;;5015017;28;20045;-87
2022/03/18 04:45:11;;;;;;;13.82;6.57;;;;;;;;;;5014889;28;20045;-88
2022/03/18 04:47:37;;;;;;;11.90;6.70;;;;;;;;;;4998535;28;20490;-87
2022/03/18 04:50:04;;;;;;;15.25;6.35;;;;;;;;;;5014652;28;20455;-87
2022/03/18 04:52:30;;;;;;;14.70;5.95;;;;;;;;;;5014860;28;20038;-87
2022/03/18 04:54:56;;;;;;;13.93;6.38;;;;;;;;;;5014770;28;20041;-88
2022/03/18 04:57:22;;;;;;;12.88;6.25;;;;;;;;;;5014952;28;20042;-87
2022/03/18 04:59:51;;;;;;;14.02;6.40;;;;;;;;;;5014707;28;20124;-88
2022/03/18 05:02:17;;;;;;;15.18;6.47;;;;;;;;;;4998684;28;20045;-88
2022/03/18 05:04:44;;;;;;;12.85;5.70;;;;;;;;;;4998705;28;20080;-87
2022/03/18 05:07:11;;;;;;;15.15;6.38;;;;;;;;;;5014183;28;20081;-87
2022/03/18 05:09:38;;;;;;;15.05;6.88;;;;;;;;;;5014837;28;20045;-87
2022/03/18 05:12:04;;;;;;;12.48;6.60;;;;;;;;;;5014699;28;20072;-87
2022/03/18 05:14:32;;;;;;;13.73;7.00;;;;;;;;;;4998523;28;20033;-88
2022/03/18 05:16:58;;;;;;;13.32;6.65;;;;;;;;;;5014749;28;20130;-87
2022/03/18 05:19:24;;;;;;;12.23;5.60;;;;;;;;;;4998672;28;20476;-87
2022/03/18 05:21:50;;;;;;;12.43;5.82;;;;;;;;;;5014873;28;20077;-87
2022/03/18 05:24:16;;;;;;;12.35;5.80;;;;;;;;;;5014911;28;20367;-87
2022/03/18 05:26:42;;;;;;;12.50;6.45;;;;;;;;;;5014943;28;20368;-88
2022/03/18 05:29:08;;;;;;;13.48;6.82;;;;;;;;;;5014660;28;20039;-86
2022/03/18 05:31:36;;;;;;;12.95;5.45;;;;;;;;;;4998313;28;20455;-87
2022/03/18 05:34:02;;;;;;;14.07;6.43;;;;;;;;;;4998469;28;20042;-87
2022/03/18 05:36:28;;;;;;;13.40;6.03;;;;;;;;;;5014540;28;20054;-87
2022/03/18 05:38:54;;;;;;;10.57;5.93;;;;;;;;;;5014802;28;20048;-87
2022/03/18 05:41:20;;;;;;;11.18;5.28;;;;;;;;;;5014429;28;20068;-87
2022/03/18 05:43:46;;;;;;;11.05;5.55;;;;;;;;;;5015092;28;20053;-87
2022/03/18 05:46:12;;;;;;;12.60;5.88;;;;;;;;;;4998394;28;20491;-88
2022/03/18 05:48:38;;;;;;;15.13;6.70;;;;;;;;;;5014738;28;20037;-87
2022/03/18 05:51:04;;;;;;;14.60;7.45;;;;;;;;;;4998224;28;20384;-87
2022/03/18 05:53:30;;;;;;;14.82;7.53;;;;;;;;;;5016813;28;20053;-87
2022/03/18 05:58:42;;;;;;;16.73;7.23;;;;;;;;;;5014611;28;20164;-87
2022/03/18 06:01:10;;;;;;;17.02;8.45;;;;;;;;;;4998055;28;20045;-88
2022/03/18 06:03:36;;;;;;;14.07;5.65;;;;;;;;;;4998242;28;20472;-87
2022/03/18 06:06:03;;;;;;;12.88;6.22;;;;;;;;;;5014408;28;20045;-87
2022/03/18 06:13:59;;;;;;;11.30;5.55;;;;;;;;;;5014438;28;20046;-87
2022/03/18 06:16:25;;;;;;;10.70;6.20;;;;;;;;;;5014232;28;20042;-88
2022/03/18 06:18:51;;;;;;;13.35;5.82;;;;;;;;;;5000358;28;20040;-87
2022/03/18 06:21:17;;;;;;;13.10;6.18;;;;;;;;;;5017526;28;20513;-87
2022/03/18 06:23:43;;;;;;;14.50;6.55;;;;;;;;;;5018165;28;20460;-87
2022/03/18 06:26:09;;;;;;;16.92;6.78;;;;;;;;;;5001036;28;20384;-87
2022/03/18 06:28:35;;;;;;;15.43;6.60;;;;;;;;;;5017597;28;20042;-87
2022/03/18 06:31:02;;;;;;;16.92;6.60;;;;;;;;;;5000855;28;20458;-87
2022/03/18 06:33:28;;;;;;;12.35;5.90;;;;;;;;;;5001138;28;20124;-87
2022/03/18 06:35:55;;;;;;;11.27;5.95;;;;;;;;;;5000431;28;20132;-87
2022/03/18 06:38:20;;;;;;;13.48;6.38;;;;;;;;;;5017804;28;20087;-87
2022/03/18 06:40:46;;;;;;;12.98;6.43;;;;;;;;;;5017917;28;20049;-87
2022/03/18 06:43:12;;;;;;;12.27;6.47;;;;;;;;;;5017175;28;20096;-88
2022/03/18 06:45:39;;;;;;;12.63;6.72;;;;;;;;;;5017120;28;20495;-88
2022/03/18 06:48:05;;;;;;;12.30;6.63;;;;;;;;;;5000706;28;20091;-88
2022/03/18 06:50:31;;;;;;;18.13;8.63;;;;;;;;;;5016904;28;20472;-87
2022/03/18 06:52:57;;;;;;;17.02;9.02;;;;;;;;;;5016926;28;20156;-88
2022/03/18 06:55:23;;;;;;;20.38;10.32;;;;;;;;;;5018227;28;20366;-88
2022/03/18 06:57:49;;;;;;;17.80;8.60;;;;;;;;;;5018154;28;20472;-87
2022/03/18 07:00:15;;;;;;;18.33;9.77;;;;;;;;;;5017559;28;20033;-87
2022/03/18 07:02:41;;;;;;;16.33;8.70;;;;;;;;;;5000384;28;20429;-87
2022/03/18 07:05:08;;;;;;;17.50;8.85;;;;;;;;;;5016855;28;20077;-87
2022/03/18 07:07:34;;;;;;;16.80;9.68;;;;;;;;;;5016259;28;20113;-87
2022/03/18 07:10:00;;;;;;;19.15;9.90;;;;;;;;;;5016468;28;20547;-87
2022/03/18 07:12:27;;;;;;;18.83;9.70;;;;;;;;;;5016361;28;20040;-87
2022/03/18 07:14:53;;;;;;;17.92;10.52;;;;;;;;;;5016712;28;20115;-87
2022/03/18 07:20:04;;;;;;;17.15;10.68;;;;;;;;;;5016804;28;20053;-86
2022/03/18 07:22:30;;;;;;;17.88;10.68;;;;;;;;;;5018327;28;20450;-88
2022/03/18 07:24:57;;;;;;;19.60;10.77;;;;;;;;;;5002180;28;20072;-87
2022/03/18 07:27:23;;;;;;;16.88;10.23;;;;;;;;;;5016368;28;20053;-86
2022/03/18 07:29:48;;;;;;;18.45;11.50;;;;;;;;;;5015553;28;20476;-87
2022/03/18 07:32:16;;;;;;;16.63;11.18;;;;;;;;;;5015790;28;20052;-88
2022/03/18 07:34:41;;;;;;;17.15;11.80;;;;;;;;;;5016079;28;20103;-86
2022/03/18 07:37:08;;;;;;;19.63;11.90;;;;;;;;;;5015744;28;20049;-86
2022/03/18 07:39:34;;;;;;;22.88;13.32;;;;;;;;;;5015789;28;20079;-87
2022/03/18 07:42:00;;;;;;;22.63;12.63;;;;;;;;;;5015781;28;20037;-87
2022/03/18 07:44:26;;;;;;;21.25;13.13;;;;;;;;;;5015764;28;20461;-87
2022/03/18 07:46:52;;;;;;;20.13;13.20;;;;;;;;;;5015520;28;20117;-86
2022/03/18 07:49:18;;;;;;;17.42;12.85;;;;;;;;;;4999346;28;20111;-87
2022/03/18 07:51:44;;;;;;;18.90;13.57;;;;;;;;;;5015467;28;20081;-86
2022/03/18 07:54:09;;;;;;;22.02;14.15;;;;;;;;;;5015547;28;20052;-87
2022/03/18 07:56:35;;;;;;;24.17;14.63;;;;;;;;;;5015307;28;20038;-87
2022/03/18 07:59:01;;;;;;;24.13;15.07;;;;;;;;;;5015552;28;20041;-86
2022/03/18 08:01:29;;;;;;;26.20;14.50;;;;;;;;;;5015657;28;20037;-87
2022/03/18 08:03:57;;;;;;;22.48;14.85;;;;;;;;;;4999289;28;20040;-87
2022/03/18 08:06:23;;;;;;;25.42;15.02;;;;;;;;;;5015414;28;20045;-87
2022/03/18 08:08:49;;;;;;;26.17;15.07;;;;;;;;;;5015164;28;20043;-87
2022/03/18 08:11:15;;;;;;;23.95;15.60;;;;;;;;;;4999000;28;20061;-87
2022/03/18 08:13:42;;;;;;;23.58;15.55;;;;;;;;;;5015101;28;20124;-86
2022/03/18 08:16:08;;;;;;;22.17;14.52;;;;;;;;;;5015168;28;20045;-87
2022/03/18 08:18:34;;;;;;;26.23;14.50;;;;;;;;;;5015202;28;20037;-87
2022/03/18 08:21:00;;;;;;;20.25;14.60;;;;;;;;;;4998903;28;20097;-87
2022/03/18 08:23:27;;;;;;;23.88;14.75;;;;;;;;;;5014968;28;20438;-87
2022/03/18 08:25:53;;;;;;;24.83;14.80;;;;;;;;;;4998508;28;20049;-87
2022/03/18 08:28:19;;;;;;;22.23;14.30;;;;;;;;;;5014797;28;20416;-86
2022/03/18 08:30:48;;;;;;;26.15;14.52;;;;;;;;;;5014969;28;20116;-86
2022/03/18 08:33:14;;;;;;;24.10;13.80;;;;;;;;;;4998506;28;20056;-86
2022/03/18 08:35:41;;;;;;;30.50;15.10;;;;;;;;;;5014664;28;20053;-87
2022/03/18 08:38:09;;;;;;;22.98;12.77;;;;;;;;;;4998234;28;20045;-86
2022/03/18 08:40:36;;;;;;;23.92;12.95;;;;;;;;;;4997648;28;20044;-86
2022/03/18 08:43:07;;;;;;;25.80;14.27;;;;;;;;;;5010187;28;20061;-87
2022/03/18 08:45:34;;;;;;;23.83;13.45;;;;;;;;;;4976028;28;20052;-87
2022/03/18 08:48:00;;;;;;;24.85;13.65;;;;;;;;;;4978629;28;20049;-87
2022/03/18 08:50:26;;;;;;;27.70;13.30;;;;;;;;;;4994888;28;20041;-86
2022/03/18 08:52:53;;;;;;;26.23;12.60;;;;;;;;;;4994826;28;20103;-87
2022/03/18 08:55:20;;;;;;;20.80;13.10;;;;;;;;;;4978823;28;20096;-87
2022/03/18 08:57:46;;;;;;;23.98;12.73;;;;;;;;;;4994705;28;20042;-87
2022/03/18 09:00:14;;;;;;;25.15;12.60;;;;;;;;;;4994681;28;20041;-88
2022/03/18 09:02:42;;;;;;;22.42;11.85;;;;;;;;;;4978303;28;20409;-86
2022/03/18 09:05:09;;;;;;;24.17;13.30;;;;;;;;;;4991694;28;20133;-86
2022/03/18 09:07:35;;;;;;;23.75;11.88;;;;;;;;;;4994539;28;20128;-87
2022/03/18 09:10:02;;;;;;;20.75;12.23;;;;;;;;;;4991384;28;20053;-87
2022/03/18 09:12:28;;;;;;;22.58;12.30;;;;;;;;;;4978589;28;20065;-86
2022/03/18 09:14:54;;;;;;;21.10;11.40;;;;;;;;;;4994617;28;20088;-87
2022/03/18 09:17:21;;;;;;;25.98;11.88;;;;;;;;;;4994533;28;20500;-87
2022/03/18 09:19:47;;;;;;;22.92;10.07;;;;;;;;;;4994581;28;20034;-87
2022/03/18 09:22:16;;;;;;;20.25;9.48;;;;;;;;;;4994685;28;20477;-86
2022/03/18 09:24:43;;;;;;;17.23;9.88;;;;;;;;;;4994514;28;20048;-86
2022/03/18 09:27:09;;;;;;;18.20;10.07;;;;;;;;;;4978581;28;20107;-86
2022/03/18 09:29:36;;;;;;;22.13;10.48;;;;;;;;;;4978500;28;20044;-86
2022/03/18 09:32:03;;;;;;;22.15;9.68;;;;;;;;;;4978515;28;20496;-86
2022/03/18 09:34:29;;;;;;;19.80;9.35;;;;;;;;;;4977904;28;20509;-86
2022/03/18 09:36:56;;;;;;;24.05;10.27;;;;;;;;;;4994836;28;20374;-87
2022/03/18 09:39:23;;;;;;;16.50;9.98;;;;;;;;;;4978193;28;20076;-87
2022/03/18 09:41:49;;;;;;;16.88;9.15;;;;;;;;;;4978450;28;20050;-87
2022/03/18 09:44:15;;;;;;;22.27;9.27;;;;;;;;;;4994088;28;20077;-87
2022/03/18 09:46:42;;;;;;;19.58;9.68;;;;;;;;;;4994276;28;20054;-86
2022/03/18 09:49:11;;;;;;;18.25;9.75;;;;;;;;;;4978106;28;20048;-86
2022/03/18 09:51:43;;;;;;;22.65;10.38;;;;;;;;;;4994933;28;20141;-86
2022/03/18 09:54:10;;;;;;;21.02;10.07;;;;;;;;;;4997858;28;20044;-86
2022/03/18 09:56:36;;;;;;;20.02;9.45;;;;;;;;;;4998266;28;20174;-86
2022/03/18 09:59:03;;;;;;;20.58;9.07;;;;;;;;;;4997620;28;20045;-86
2022/03/18 10:01:29;;;;;;;17.98;9.77;;;;;;;;;;4997893;28;20099;-86
2022/03/18 10:04:01;;;;;;;19.85;9.82;;;;;;;;;;4981502;28;20345;-86
2022/03/18 10:06:28;;;;;;;19.50;9.73;;;;;;;;;;4982040;28;20385;-86
2022/03/18 10:08:55;;;;;;;21.23;9.88;;;;;;;;;;4997664;28;20152;-86
2022/03/18 10:11:28;;;;;;;23.17;9.77;;;;;;;;;;4981437;28;20045;-86
2022/03/18 10:14:07;;;;;;;17.98;9.57;;;;;;;;;;4997628;28;20042;-86
2022/03/18 10:16:34;;;;;;;25.85;10.13;;;;;;;;;;4997702;28;20072;-86
2022/03/18 10:19:01;;;;;;;26.13;11.10;;;;;;;;;;4997677;28;20504;-87
2022/03/18 10:21:28;;;;;;;22.63;10.18;;;;;;;;;;4997615;28;20049;-87
2022/03/18 10:24:04;;;;;;;26.55;11.20;;;;;;;;;;4981337;28;20385;-87
2022/03/18 10:26:33;;;;;;;21.95;10.88;;;;;;;;;;4981517;28;20368;-86
2022/03/18 10:29:00;;;;;;;19.10;10.50;;;;;;;;;;4997158;28;20046;-86
2022/03/18 10:31:26;;;;;;;20.70;10.88;;;;;;;;;;4997331;28;20041;-86
2022/03/18 10:39:23;;;;;;;23.75;9.50;;;;;;;;;;4996961;28;19921;-86
2022/03/18 10:41:49;;;;;;;19.40;10.20;;;;;;;;;;4997203;28;20041;-86
2022/03/18 10:44:18;;;;;;;19.85;9.88;;;;;;;;;;4996925;28;20386;-86
2022/03/18 10:46:44;;;;;;;27.10;10.48;;;;;;;;;;4980969;28;20042;-86
2022/03/18 10:49:10;;;;;;;19.73;9.80;;;;;;;;;;4996867;28;20042;-86
2022/03/18 10:51:40;;;;;;;25.60;10.25;;;;;;;;;;4980711;28;20201;-86
2022/03/18 10:54:06;;;;;;;19.63;9.45;;;;;;;;;;4997091;28;20187;-86
2022/03/18 10:56:51;;;;;;;19.75;9.88;;;;;;;;;;4997014;28;20543;-86
2022/03/18 10:59:17;;;;;;;18.73;10.52;;;;;;;;;;4996797;28;20038;-86
2022/03/18 11:01:45;;;;;;;19.05;10.23;;;;;;;;;;4996867;28;20124;-86
2022/03/18 11:04:12;;;;;;;20.85;9.82;;;;;;;;;;4979408;28;20160;-86
2022/03/18 11:06:38;;;;;;;18.27;9.77;;;;;;;;;;4980997;28;20049;-87
2022/03/18 11:09:04;;;;;;;18.48;10.05;;;;;;;;;;4998712;28;20108;-87
2022/03/18 11:11:31;;;;;;;18.00;8.93;;;;;;;;;;4998846;28;20073;-86
2022/03/18 11:14:02;;;;;;;17.83;9.05;;;;;;;;;;4996342;28;20052;-86
2022/03/18 11:16:29;;;;;;;20.80;9.60;;;;;;;;;;4980634;28;20064;-86
2022/03/18 11:18:56;;;;;;;16.42;8.85;;;;;;;;;;4980313;28;20038;-86
2022/03/18 11:21:25;;;;;;;21.85;9.60;;;;;;;;;;4996746;28;20053;-86
2022/03/18 11:23:55;;;;;;;20.42;8.45;;;;;;;;;;4996741;28;20167;-86
2022/03/18 11:26:21;;;;;;;15.77;7.50;;;;;;;;;;4980275;28;20042;-86
2022/03/18 11:29:05;;;;;;;20.27;7.10;;;;;;;;;;4980271;28;20046;-87
2022/03/18 11:31:31;;;;;;;20.70;8.15;;;;;;;;;;4996546;28;20505;-86
2022/03/18 11:34:17;;;;;;;18.08;8.18;;;;;;;;;;4979552;28;20045;-86
2022/03/18 11:36:47;;;;;;;19.80;8.57;;;;;;;;;;4996384;28;20501;-86
2022/03/18 11:39:20;;;;;;;19.35;8.20;;;;;;;;;;4996012;28;20042;-86
2022/03/18 11:41:56;;;;;;;13.15;7.78;;;;;;;;;;5013904;28;20053;-86
2022/03/18 11:45:01;;;;;;;20.60;9.45;;;;;;;;;;4979994;28;20133;-86
2022/03/18 11:47:30;;;;;;;18.17;8.45;;;;;;;;;;4899371;29;20389;-86
2022/03/18 11:49:57;;;;;;;17.75;7.45;;;;;;;;;;4899129;29;20533;-86
2022/03/18 11:52:23;;;;;;;20.80;7.28;;;;;;;;;;4947705;28;20076;-86
2022/03/18 11:54:50;;;;;;;14.88;6.65;;;;;;;;;;4979595;28;20038;-86
2022/03/18 11:57:37;;;;;;;17.35;7.38;;;;;;;;;;4996036;28;20049;-86
2022/03/18 12:00:07;;;;;;;21.85;8.57;;;;;;;;;;4980588;28;20049;-86
2022/03/18 12:02:33;;;;;;;18.35;8.52;;;;;;;;;;4996830;28;20100;-87
2022/03/18 12:04:59;;;;;;;21.95;8.35;;;;;;;;;;4996014;28;20077;-89
2022/03/18 12:07:30;;;;;;;20.02;7.55;;;;;;;;;;4980204;28;20049;-86
2022/03/18 12:10:00;;;;;;;14.40;7.65;;;;;;;;;;4979693;28;20045;-84
2022/03/18 12:12:34;;;;;;;20.33;7.40;;;;;;;;;;4979490;28;20053;-85
2022/03/18 12:15:03;;;;;;;13.82;7.18;;;;;;;;;;4995849;28;20079;-86
2022/03/18 12:17:29;;;;;;;19.58;8.10;;;;;;;;;;4979885;28;20385;-86
2022/03/18 12:19:56;;;;;;;17.80;7.10;;;;;;;;;;4995526;28;20041;-86
2022/03/18 12:22:23;;;;;;;20.23;8.18;;;;;;;;;;4995943;28;20045;-86
2022/03/18 12:24:50;;;;;;;19.02;7.65;;;;;;;;;;4995642;28;20049;-86
2022/03/18 12:27:17;;;;;;;15.18;6.82;;;;;;;;;;4980078;28;20041;-86
2022/03/18 12:29:43;;;;;;;13.63;7.00;;;;;;;;;;4979472;28;20038;-86
2022/03/18 12:32:09;;;;;;;17.08;7.35;;;;;;;;;;4995751;28;20121;-86
2022/03/18 12:34:36;;;;;;;16.08;7.82;;;;;;;;;;4994978;28;20062;-86
2022/03/18 12:37:17;;;;;;;20.02;7.78;;;;;;;;;;4995592;28;20167;-86
2022/03/18 12:39:43;;;;;;;19.08;8.45;;;;;;;;;;4995186;28;20071;-84
2022/03/18 12:42:11;;;;;;;17.98;9.77;;;;;;;;;;4979023;28;20040;-88
2022/03/18 12:44:37;;;;;;;18.92;10.20;;;;;;;;;;4977737;28;20046;-86
2022/03/18 12:47:07;;;;;;;25.70;10.85;;;;;;;;;;4995246;28;20033;-87
2022/03/18 12:49:35;;;;;;;19.35;8.98;;;;;;;;;;4994847;28;20049;-87
2022/03/18 12:52:01;;;;;;;16.45;7.13;;;;;;;;;;4995100;28;20049;-86
2022/03/18 12:54:27;;;;;;;19.90;8.85;;;;;;;;;;4994830;28;20049;-86
2022/03/18 12:56:53;;;;;;;18.45;6.43;;;;;;;;;;4979286;28;20046;-86
2022/03/18 12:59:20;;;;;;;14.80;6.15;;;;;;;;;;4995722;28;20397;-86
2022/03/18 13:01:56;;;;;;;15.82;7.53;;;;;;;;;;4994801;28;20088;-87
2022/03/18 13:04:22;;;;;;;20.80;6.95;;;;;;;;;;4978570;28;20499;-87
2022/03/18 13:06:52;;;;;;;16.05;6.80;;;;;;;;;;4994636;28;20037;-87
2022/03/18 13:09:18;;;;;;;16.77;7.38;;;;;;;;;;4994905;28;20049;-88
2022/03/18 13:11:45;;;;;;;16.02;6.75;;;;;;;;;;4978500;28;20049;-88
2022/03/18 13:14:12;;;;;;;16.13;5.47;;;;;;;;;;4978595;28;20042;-88
2022/03/18 13:16:44;;;;;;;15.70;6.55;;;;;;;;;;4978633;28;20033;-88
2022/03/18 13:19:10;;;;;;;16.27;6.82;;;;;;;;;;4994702;28;20049;-88
2022/03/18 13:21:40;;;;;;;15.32;6.10;;;;;;;;;;4978413;28;20120;-88
2022/03/18 13:24:07;;;;;;;17.60;6.10;;;;;;;;;;4994722;28;20551;-88
2022/03/18 13:26:33;;;;;;;17.85;6.05;;;;;;;;;;4994808;28;20100;-89
2022/03/18 13:28:59;;;;;;;14.35;6.22;;;;;;;;;;4998873;28;20099;-88
2022/03/18 13:34:10;;;;;;;17.80;6.30;;;;;;;;;;4998394;28;20038;-89
2022/03/18 13:36:38;;;;;;;15.85;4.93;;;;;;;;;;4983171;28;20050;-89
2022/03/18 13:39:08;;;;;;;17.58;6.68;;;;;;;;;;4999128;28;20228;-90
2022/03/18 13:41:50;;;;;;;17.40;6.43;;;;;;;;;;4982373;28;20046;-90
2022/03/18 13:44:17;;;;;;;17.27;7.13;;;;;;;;;;4982839;28;21692;-90
2022/03/18 13:46:56;;;;;;;17.98;6.35;;;;;;;;;;4998745;28;20042;-89
2022/03/18 13:49:22;;;;;;;14.05;5.30;;;;;;;;;;4982978;28;20053;-90
2022/03/18 13:51:49;;;;;;;18.60;7.32;;;;;;;;;;4982240;28;20053;-90
2022/03/18 13:54:21;;;;;;;16.88;8.05;;;;;;;;;;4998474;28;20041;-89
2022/03/18 13:57:03;;;;;;;19.10;7.80;;;;;;;;;;4998579;28;20095;-89
2022/03/18 13:59:30;;;;;;;18.42;7.95;;;;;;;;;;4998557;28;20426;-88
2022/03/18 14:02:00;;;;;;;22.00;7.40;;;;;;;;;;4998698;28;20072;-89
2022/03/18 14:04:27;;;;;;;17.25;8.10;;;;;;;;;;4998408;28;20037;-90
2022/03/18 14:06:54;;;;;;;15.27;7.15;;;;;;;;;;4998308;28;20046;-90
2022/03/18 14:09:20;;;;;;;19.08;7.07;;;;;;;;;;4982080;28;20132;-90
2022/03/18 14:14:31;;;;;;;13.90;6.40;;;;;;;;;;4998232;28;20050;-90
2022/03/18 14:17:12;;;;;;;17.33;5.25;;;;;;;;;;4982215;28;20046;-90
2022/03/18 14:19:48;;;;;;;18.98;5.40;;;;;;;;;;4998422;28;20045;-91
2022/03/18 14:22:33;;;;;;;15.18;4.45;;;;;;;;;;4981888;28;20103;-90
2022/03/18 14:25:00;;;;;;;17.27;5.45;;;;;;;;;;4998381;28;20338;-90
2022/03/18 14:27:26;;;;;;;12.60;4.43;;;;;;;;;;4997837;28;20448;-89
2022/03/18 14:29:52;;;;;;;14.93;4.00;;;;;;;;;;4997844;28;20041;-90
2022/03/18 14:32:18;;;;;;;15.43;4.07;;;;;;;;;;4981852;28;20041;-91
2022/03/18 14:34:45;;;;;;;12.20;3.28;;;;;;;;;;4981320;28;20144;-89
2022/03/18 14:37:12;;;;;;;14.35;4.07;;;;;;;;;;4997689;28;20612;-91
2022/03/18 14:39:38;;;;;;;16.83;3.42;;;;;;;;;;4980131;28;20121;-89
2022/03/18 14:42:04;;;;;;;10.48;3.65;;;;;;;;;;4997629;28;20200;-89
2022/03/18 14:44:30;;;;;;;16.95;3.65;;;;;;;;;;4981620;28;20410;-87
2022/03/18 14:46:56;;;;;;;11.57;4.00;;;;;;;;;;4981372;28;20393;-89
2022/03/18 14:49:22;;;;;;;14.48;3.67;;;;;;;;;;4981685;28;20489;-89
2022/03/18 14:51:48;;;;;;;14.88;3.33;;;;;;;;;;4997836;28;20049;-91
2022/03/18 14:54:14;;;;;;;16.88;4.47;;;;;;;;;;4981690;28;20563;-89
2022/03/18 14:56:41;;;;;;;15.45;4.47;;;;;;;;;;4981257;28;20069;-90
2022/03/18 14:59:07;;;;;;;14.15;4.63;;;;;;;;;;4997775;28;20048;-90